Time;durP1;ratioP1;P1;durP2;ratioP2;P2;SDS_P1;SDS_P2;PMS_P1;PMS_P2;Temp;Humidity;BMP_temperature;BMP_pressure;BME280_temperature;BME280_humidity;BME280_pressure;Samples;Min_cycle;Max_cycle;Signal;HPM_P1;HPM_P2
2024/02/02 00:00:43;;;;;;;26.05;4.38;;;;;;;;;;5074910;28;20048;-28
2024/02/02 00:03:08;;;;;;;24.08;4.43;;;;;;;;;;5074879;28;20048;-28
2024/02/02 00:05:33;;;;;;;23.77;4.45;;;;;;;;;;5074764;28;20414;-28
2024/02/02 00:07:58;;;;;;;20.92;4.07;;;;;;;;;;5074980;28;20025;-28
2024/02/02 00:10:24;;;;;;;20.33;3.75;;;;;;;;;;5074524;28;20500;-28
2024/02/02 00:12:49;;;;;;;16.70;3.80;;;;;;;;;;5074824;28;20100;-27
2024/02/02 00:15:15;;;;;;;20.85;3.63;;;;;;;;;;5074580;28;20486;-27
2024/02/02 00:17:40;;;;;;;19.23;3.30;;;;;;;;;;5074525;28;20048;-28
2024/02/02 00:20:05;;;;;;;22.25;3.38;;;;;;;;;;5074221;28;20463;-28
2024/02/02 00:22:31;;;;;;;20.95;4.10;;;;;;;;;;5074410;28;20032;-28
2024/02/02 00:24:56;;;;;;;30.60;4.30;;;;;;;;;;5074662;28;20022;-27
2024/02/02 00:27:21;;;;;;;20.83;4.72;;;;;;;;;;5074552;28;20465;-28
2024/02/02 00:29:47;;;;;;;17.42;3.80;;;;;;;;;;5074510;28;20032;-27
2024/02/02 00:32:15;;;;;;;24.17;4.20;;;;;;;;;;5074218;28;20012;-28
2024/02/02 00:34:41;;;;;;;21.80;3.85;;;;;;;;;;5073767;28;20067;-28
2024/02/02 00:37:06;;;;;;;22.88;4.40;;;;;;;;;;5074682;28;20020;-27
2024/02/02 00:39:32;;;;;;;30.25;4.35;;;;;;;;;;5074353;28;20021;-28
2024/02/02 00:41:57;;;;;;;21.85;3.83;;;;;;;;;;5074572;28;20029;-28
2024/02/02 00:44:22;;;;;;;24.25;3.83;;;;;;;;;;5073858;28;20464;-28
2024/02/02 00:46:47;;;;;;;26.88;4.28;;;;;;;;;;5074165;28;20078;-28
2024/02/02 00:49:13;;;;;;;22.30;3.78;;;;;;;;;;5073826;28;20031;-27
2024/02/02 00:51:38;;;;;;;17.75;3.97;;;;;;;;;;5074182;28;20024;-27
2024/02/02 00:54:03;;;;;;;23.45;4.45;;;;;;;;;;5074022;28;20016;-27
2024/02/02 00:56:28;;;;;;;24.92;4.50;;;;;;;;;;5073773;28;20039;-28
2024/02/02 00:58:53;;;;;;;29.02;5.22;;;;;;;;;;5074129;28;20104;-27
2024/02/02 01:01:19;;;;;;;16.55;4.25;;;;;;;;;;5073995;28;20016;-28
2024/02/02 01:03:44;;;;;;;19.73;4.85;;;;;;;;;;5073555;28;20047;-28
2024/02/02 01:06:09;;;;;;;21.40;4.63;;;;;;;;;;5074148;28;20095;-29
2024/02/02 01:08:34;;;;;;;25.77;4.85;;;;;;;;;;5074122;28;20021;-28
2024/02/02 01:10:59;;;;;;;21.77;4.50;;;;;;;;;;5073384;28;20021;-28
2024/02/02 01:13:25;;;;;;;23.60;4.68;;;;;;;;;;5073817;28;20032;-28
2024/02/02 01:15:50;;;;;;;26.48;4.45;;;;;;;;;;5072160;28;20025;-28
2024/02/02 01:18:16;;;;;;;23.13;4.75;;;;;;;;;;5074033;28;20032;-28
2024/02/02 01:20:44;;;;;;;21.40;5.35;;;;;;;;;;5073416;28;20025;-28
2024/02/02 01:23:09;;;;;;;21.23;4.85;;;;;;;;;;5073395;28;20028;-28
2024/02/02 01:25:35;;;;;;;24.10;5.43;;;;;;;;;;5073653;28;20032;-28
2024/02/02 01:28:00;;;;;;;24.13;5.25;;;;;;;;;;5073422;28;20482;-28
2024/02/02 01:30:26;;;;;;;21.98;5.18;;;;;;;;;;5074109;28;20460;-28
2024/02/02 01:32:51;;;;;;;17.60;5.13;;;;;;;;;;5073614;28;20021;-29
2024/02/02 01:35:19;;;;;;;21.80;4.47;;;;;;;;;;5073578;28;20456;-28
2024/02/02 01:37:45;;;;;;;23.27;6.13;;;;;;;;;;5073548;28;20478;-28
2024/02/02 01:40:13;;;;;;;23.58;5.28;;;;;;;;;;5073547;28;20017;-28
2024/02/02 01:42:38;;;;;;;28.85;5.63;;;;;;;;;;5073159;28;20031;-28
2024/02/02 01:45:03;;;;;;;23.90;5.60;;;;;;;;;;5072877;28;20021;-28
2024/02/02 01:47:29;;;;;;;24.17;6.03;;;;;;;;;;5073517;28;20466;-28
2024/02/02 01:49:54;;;;;;;27.05;6.88;;;;;;;;;;5073015;28;20052;-28
2024/02/02 01:52:19;;;;;;;25.90;5.45;;;;;;;;;;5073129;28;20103;-28
2024/02/02 01:54:45;;;;;;;26.05;5.25;;;;;;;;;;5073133;28;20024;-29
2024/02/02 01:57:10;;;;;;;26.95;5.65;;;;;;;;;;5076761;28;20017;-28
2024/02/02 01:59:35;;;;;;;34.15;6.22;;;;;;;;;;5077507;28;20073;-29
2024/02/02 02:02:01;;;;;;;18.75;5.55;;;;;;;;;;5077284;28;20017;-28
2024/02/02 02:04:26;;;;;;;22.55;5.57;;;;;;;;;;5076959;28;20067;-28
2024/02/02 02:06:51;;;;;;;22.38;5.45;;;;;;;;;;5076962;28;20025;-28
2024/02/02 02:09:16;;;;;;;31.83;5.80;;;;;;;;;;5077207;28;20078;-28
2024/02/02 02:11:42;;;;;;;31.70;7.30;;;;;;;;;;5076830;28;20012;-28
2024/02/02 02:14:07;;;;;;;23.13;5.38;;;;;;;;;;5076892;28;20062;-28
2024/02/02 02:16:33;;;;;;;26.15;6.20;;;;;;;;;;5076719;28;20027;-28
2024/02/02 02:18:58;;;;;;;27.27;5.65;;;;;;;;;;5076734;28;20016;-28
2024/02/02 02:21:24;;;;;;;24.08;5.25;;;;;;;;;;5076832;28;20492;-27
2024/02/02 02:23:49;;;;;;;25.23;6.13;;;;;;;;;;5076734;28;20017;-28
2024/02/02 02:26:14;;;;;;;22.45;5.72;;;;;;;;;;5076962;28;20024;-28
2024/02/02 02:28:39;;;;;;;24.27;6.82;;;;;;;;;;5076546;28;20483;-27
2024/02/02 02:31:05;;;;;;;32.08;6.40;;;;;;;;;;5076717;28;20375;-27
2024/02/02 02:33:30;;;;;;;20.58;5.32;;;;;;;;;;5077062;28;20023;-28
2024/02/02 02:35:55;;;;;;;23.15;5.43;;;;;;;;;;5076478;28;20459;-28
2024/02/02 02:38:20;;;;;;;30.25;6.13;;;;;;;;;;5076411;28;20052;-28
2024/02/02 02:40:46;;;;;;;25.23;5.68;;;;;;;;;;5076363;28;20471;-28
2024/02/02 02:43:11;;;;;;;30.73;6.90;;;;;;;;;;5076338;28;20016;-28
2024/02/02 02:45:36;;;;;;;23.05;5.97;;;;;;;;;;5076589;28;20020;-28
2024/02/02 02:48:02;;;;;;;27.25;6.65;;;;;;;;;;5077003;28;20442;-28
2024/02/02 02:50:27;;;;;;;24.48;5.93;;;;;;;;;;5076406;28;20103;-28
2024/02/02 02:52:53;;;;;;;19.35;5.70;;;;;;;;;;5076111;28;20017;-28
2024/02/02 02:55:19;;;;;;;27.58;7.50;;;;;;;;;;5076129;28;20073;-28
2024/02/02 02:57:45;;;;;;;23.10;6.03;;;;;;;;;;5076363;28;20405;-28
2024/02/02 03:00:11;;;;;;;31.25;6.45;;;;;;;;;;5076327;28;20020;-28
2024/02/02 03:02:36;;;;;;;23.63;6.25;;;;;;;;;;5076085;28;20192;-28
2024/02/02 03:05:01;;;;;;;26.15;6.50;;;;;;;;;;5076227;28;20032;-28
2024/02/02 03:07:26;;;;;;;27.48;6.00;;;;;;;;;;5075782;28;20023;-27
2024/02/02 03:09:52;;;;;;;24.20;6.53;;;;;;;;;;5075789;28;20020;-28
2024/02/02 03:12:17;;;;;;;22.80;6.47;;;;;;;;;;5075953;28;20021;-33
2024/02/02 03:14:42;;;;;;;27.40;7.10;;;;;;;;;;5076052;28;20025;-33
2024/02/02 03:17:07;;;;;;;22.02;5.97;;;;;;;;;;5074585;28;20653;-33
2024/02/02 03:19:33;;;;;;;26.75;6.75;;;;;;;;;;5075804;28;20020;-32
2024/02/02 03:21:58;;;;;;;27.15;6.10;;;;;;;;;;5075902;28;20455;-32
2024/02/02 03:24:23;;;;;;;22.13;6.32;;;;;;;;;;5075870;28;20468;-33
2024/02/02 03:26:48;;;;;;;22.60;6.47;;;;;;;;;;5075564;28;20463;-32
2024/02/02 03:29:14;;;;;;;30.65;6.93;;;;;;;;;;5075462;28;20024;-33
2024/02/02 03:31:39;;;;;;;26.05;7.05;;;;;;;;;;5075092;28;20024;-33
2024/02/02 03:34:04;;;;;;;28.52;7.20;;;;;;;;;;5076015;28;20016;-33
2024/02/02 03:36:29;;;;;;;24.30;5.90;;;;;;;;;;5075614;28;20050;-33
2024/02/02 03:38:54;;;;;;;20.27;5.68;;;;;;;;;;5075319;28;20142;-34
2024/02/02 03:41:21;;;;;;;23.17;6.63;;;;;;;;;;5074884;28;20107;-33
2024/02/02 03:43:48;;;;;;;25.35;5.70;;;;;;;;;;5075224;28;20024;-32
2024/02/02 03:46:14;;;;;;;25.65;6.22;;;;;;;;;;5075464;28;20051;-36
2024/02/02 03:48:39;;;;;;;23.38;5.22;;;;;;;;;;5075145;28;20021;-33
2024/02/02 03:51:04;;;;;;;27.48;6.00;;;;;;;;;;5075038;28;20017;-33
2024/02/02 03:53:29;;;;;;;30.20;6.43;;;;;;;;;;5075601;28;20066;-33
2024/02/02 03:55:55;;;;;;;25.85;5.43;;;;;;;;;;5074997;28;20095;-32
2024/02/02 03:58:20;;;;;;;25.35;5.28;;;;;;;;;;5075111;28;20016;-33
2024/02/02 04:00:45;;;;;;;20.27;5.45;;;;;;;;;;5074918;28;20168;-33
2024/02/02 04:03:10;;;;;;;21.58;5.00;;;;;;;;;;5074857;28;20056;-39
2024/02/02 04:05:35;;;;;;;28.45;5.68;;;;;;;;;;5075380;28;20049;-32
2024/02/02 04:08:01;;;;;;;27.67;5.30;;;;;;;;;;5074745;28;20028;-32
2024/02/02 04:10:26;;;;;;;30.05;5.97;;;;;;;;;;5074621;28;20472;-32
2024/02/02 04:12:52;;;;;;;22.05;5.30;;;;;;;;;;5074653;28;20055;-32
2024/02/02 04:15:17;;;;;;;28.50;4.95;;;;;;;;;;5074585;28;20012;-33
2024/02/02 04:17:42;;;;;;;21.60;4.63;;;;;;;;;;5073274;28;20021;-33
2024/02/02 04:20:08;;;;;;;16.83;4.35;;;;;;;;;;5073816;28;20055;-33
2024/02/02 04:22:33;;;;;;;19.45;4.40;;;;;;;;;;5074362;28;20464;-33
2024/02/02 04:24:58;;;;;;;21.52;4.22;;;;;;;;;;5074883;28;20028;-33
2024/02/02 04:27:23;;;;;;;24.15;4.53;;;;;;;;;;5074296;28;20023;-33
2024/02/02 04:29:49;;;;;;;24.83;4.22;;;;;;;;;;5074504;28;20020;-33
2024/02/02 04:32:14;;;;;;;23.83;3.65;;;;;;;;;;5074470;28;20091;-33
2024/02/02 04:34:39;;;;;;;18.25;4.32;;;;;;;;;;5074206;28;20020;-33
2024/02/02 04:37:04;;;;;;;17.95;3.75;;;;;;;;;;5074256;28;20024;-38
2024/02/02 04:39:30;;;;;;;30.17;4.60;;;;;;;;;;5074134;28;20027;-33
2024/02/02 04:41:56;;;;;;;22.40;3.95;;;;;;;;;;5074611;28;20360;-33
2024/02/02 04:44:21;;;;;;;24.30;3.88;;;;;;;;;;5074524;28;20363;-33
2024/02/02 04:46:46;;;;;;;19.30;4.63;;;;;;;;;;5074244;28;20021;-33
2024/02/02 04:49:12;;;;;;;20.13;3.50;;;;;;;;;;5073838;28;20016;-33
2024/02/02 04:51:37;;;;;;;23.08;3.88;;;;;;;;;;5073942;28;20074;-33
2024/02/02 04:54:02;;;;;;;17.58;4.20;;;;;;;;;;5073876;28;20376;-33
2024/02/02 04:56:28;;;;;;;22.25;3.50;;;;;;;;;;5073782;28;20025;-33
2024/02/02 04:58:53;;;;;;;23.13;4.15;;;;;;;;;;5073647;28;20023;-33
2024/02/02 05:01:19;;;;;;;19.38;3.20;;;;;;;;;;5074031;28;20034;-33
2024/02/02 05:03:44;;;;;;;21.25;3.95;;;;;;;;;;5073511;28;20052;-34
2024/02/02 05:06:10;;;;;;;22.98;3.53;;;;;;;;;;5073678;28;20031;-33
2024/02/02 05:08:35;;;;;;;17.48;3.28;;;;;;;;;;5073900;28;20048;-33
2024/02/02 05:11:00;;;;;;;22.38;4.15;;;;;;;;;;5073469;28;20021;-33
2024/02/02 05:13:25;;;;;;;28.30;3.65;;;;;;;;;;5071868;28;20472;-34
2024/02/02 05:15:51;;;;;;;16.25;3.28;;;;;;;;;;5073566;28;20349;-33
2024/02/02 05:18:16;;;;;;;15.85;2.92;;;;;;;;;;5073621;28;20102;-33
2024/02/02 05:20:41;;;;;;;17.02;3.42;;;;;;;;;;5074092;28;20028;-33
2024/02/02 05:23:06;;;;;;;19.75;3.72;;;;;;;;;;5073493;28;20464;-34
2024/02/02 05:25:32;;;;;;;22.52;3.25;;;;;;;;;;5073493;28;20549;-33
2024/02/02 05:27:57;;;;;;;24.02;3.42;;;;;;;;;;5073697;28;20443;-33
2024/02/02 05:30:22;;;;;;;27.05;3.75;;;;;;;;;;5073050;28;20020;-33
2024/02/02 05:32:47;;;;;;;23.30;3.25;;;;;;;;;;5073951;28;20360;-34
2024/02/02 05:35:12;;;;;;;25.77;3.58;;;;;;;;;;5073888;28;20619;-34
2024/02/02 05:37:38;;;;;;;19.85;2.80;;;;;;;;;;5073301;28;20506;-34
2024/02/02 05:40:03;;;;;;;26.67;3.72;;;;;;;;;;5073230;28;20376;-33
2024/02/02 05:42:28;;;;;;;22.15;3.58;;;;;;;;;;5071285;28;20032;-33
2024/02/02 05:44:53;;;;;;;19.25;3.53;;;;;;;;;;5071210;28;20036;-34
2024/02/02 05:47:19;;;;;;;22.08;2.67;;;;;;;;;;5072264;28;20025;-33
2024/02/02 05:49:44;;;;;;;23.90;3.53;;;;;;;;;;5073452;28;20028;-33
2024/02/02 05:52:09;;;;;;;19.63;2.80;;;;;;;;;;5073154;28;20067;-33
2024/02/02 05:54:35;;;;;;;30.10;3.40;;;;;;;;;;5073021;28;20024;-34
2024/02/02 05:57:00;;;;;;;28.30;3.58;;;;;;;;;;5072477;28;20363;-34
2024/02/02 05:59:25;;;;;;;20.70;3.03;;;;;;;;;;5072785;28;20016;-33
2024/02/02 06:01:51;;;;;;;18.35;2.83;;;;;;;;;;5073963;28;20028;-34
2024/02/02 06:04:16;;;;;;;18.98;3.33;;;;;;;;;;5073014;28;20135;-33
2024/02/02 06:06:41;;;;;;;19.50;3.40;;;;;;;;;;5073070;28;20103;-33
2024/02/02 06:09:09;;;;;;;27.02;3.88;;;;;;;;;;5073569;28;20025;-33
2024/02/02 06:11:34;;;;;;;24.20;3.10;;;;;;;;;;5072978;28;20019;-33
2024/02/02 06:13:59;;;;;;;24.42;4.25;;;;;;;;;;5073021;28;20099;-33
2024/02/02 06:16:25;;;;;;;21.17;3.40;;;;;;;;;;5073060;28;20476;-33
2024/02/02 06:18:51;;;;;;;21.95;2.85;;;;;;;;;;5073228;28;20460;-33
2024/02/02 06:21:16;;;;;;;25.42;3.28;;;;;;;;;;5071687;28;20024;-34
2024/02/02 06:23:41;;;;;;;18.08;3.13;;;;;;;;;;5073491;28;20021;-34
2024/02/02 06:26:07;;;;;;;24.48;3.97;;;;;;;;;;5073198;28;20017;-34
2024/02/02 06:28:32;;;;;;;22.23;3.30;;;;;;;;;;5071681;28;20429;-33
2024/02/02 06:30:57;;;;;;;17.30;3.08;;;;;;;;;;5072794;28;20032;-33
2024/02/02 06:33:22;;;;;;;28.15;4.38;;;;;;;;;;5073346;28;20028;-33
2024/02/02 06:35:48;;;;;;;21.35;3.53;;;;;;;;;;5071192;28;20017;-32
2024/02/02 06:38:13;;;;;;;23.35;2.95;;;;;;;;;;5072828;28;20012;-33
2024/02/02 06:40:38;;;;;;;25.75;3.25;;;;;;;;;;5072746;28;20025;-33
2024/02/02 06:43:04;;;;;;;24.13;2.88;;;;;;;;;;5075942;28;20106;-33
2024/02/02 06:45:29;;;;;;;34.75;4.45;;;;;;;;;;5076617;28;20116;-32
2024/02/02 06:47:55;;;;;;;26.67;3.88;;;;;;;;;;5076901;28;20020;-33
2024/02/02 06:50:20;;;;;;;24.63;4.00;;;;;;;;;;5076031;28;20024;-33
2024/02/02 06:52:45;;;;;;;38.47;4.65;;;;;;;;;;5076188;28;20087;-33
2024/02/02 06:55:11;;;;;;;29.08;3.50;;;;;;;;;;5076382;28;20127;-33
2024/02/02 06:57:37;;;;;;;24.35;3.65;;;;;;;;;;5076128;28;20028;-33
2024/02/02 07:00:03;;;;;;;20.88;2.97;;;;;;;;;;5075060;28;20017;-33
2024/02/02 07:02:32;;;;;;;25.08;3.15;;;;;;;;;;5076443;28;20032;-34
2024/02/02 07:04:58;;;;;;;26.25;3.38;;;;;;;;;;5076133;28;20042;-34
2024/02/02 07:07:24;;;;;;;22.17;3.88;;;;;;;;;;5076260;28;20379;-34
2024/02/02 07:09:54;;;;;;;22.77;3.38;;;;;;;;;;5075938;28;20115;-34
2024/02/02 07:12:41;;;;;;;28.33;3.53;;;;;;;;;;5076181;28;20041;-34
2024/02/02 07:15:08;;;;;;;19.85;3.35;;;;;;;;;;5076208;28;20040;-34
2024/02/02 07:17:34;;;;;;;29.35;4.03;;;;;;;;;;5075881;28;20371;-34
2024/02/02 07:20:00;;;;;;;18.73;3.63;;;;;;;;;;5074555;28;20078;-34
2024/02/02 07:22:25;;;;;;;29.13;3.97;;;;;;;;;;5076049;28;20016;-37
2024/02/02 07:24:50;;;;;;;23.07;4.60;;;;;;;;;;5075699;28;20387;-34
2024/02/02 07:27:25;;;;;;;29.17;3.75;;;;;;;;;;5075608;28;20358;-34
2024/02/02 07:29:50;;;;;;;23.90;3.20;;;;;;;;;;5074192;28;20060;-34
2024/02/02 07:32:16;;;;;;;25.20;4.18;;;;;;;;;;5075599;28;20059;-34
2024/02/02 07:34:47;;;;;;;25.08;4.20;;;;;;;;;;5075519;28;20059;-34
2024/02/02 07:37:34;;;;;;;32.63;4.32;;;;;;;;;;5074656;28;20058;-35
2024/02/02 07:40:00;;;;;;;23.40;3.70;;;;;;;;;;5074220;28;20029;-34
2024/02/02 07:42:25;;;;;;;20.98;3.75;;;;;;;;;;5074148;28;20464;-33
2024/02/02 07:44:50;;;;;;;28.20;3.85;;;;;;;;;;5075761;28;20119;-33
2024/02/02 07:47:16;;;;;;;17.70;2.90;;;;;;;;;;5075528;28;20097;-34
2024/02/02 07:49:41;;;;;;;20.70;3.67;;;;;;;;;;5075160;28;20162;-34
2024/02/02 07:52:06;;;;;;;23.02;4.18;;;;;;;;;;5075853;28;20017;-34
2024/02/02 07:54:31;;;;;;;22.88;3.58;;;;;;;;;;5074410;28;20012;-34
2024/02/02 07:56:56;;;;;;;16.73;3.50;;;;;;;;;;5075343;28;20016;-34
2024/02/02 07:59:22;;;;;;;26.45;4.15;;;;;;;;;;5073657;28;20017;-35
2024/02/02 08:01:47;;;;;;;24.38;3.28;;;;;;;;;;5075575;28;20013;-34
2024/02/02 08:04:13;;;;;;;26.65;3.53;;;;;;;;;;5074784;28;20044;-33
2024/02/02 08:06:39;;;;;;;32.00;4.07;;;;;;;;;;5074929;28;20017;-34
2024/02/02 08:09:04;;;;;;;33.03;5.15;;;;;;;;;;5075494;28;20067;-35
2024/02/02 08:11:35;;;;;;;28.35;4.43;;;;;;;;;;5074683;28;20483;-34
2024/02/02 08:14:00;;;;;;;23.70;3.53;;;;;;;;;;5074841;28;20020;-34
2024/02/02 08:16:25;;;;;;;22.17;3.22;;;;;;;;;;5073508;28;20043;-36
2024/02/02 08:18:51;;;;;;;28.88;3.47;;;;;;;;;;5074708;28;20020;-34
2024/02/02 08:21:16;;;;;;;23.75;3.25;;;;;;;;;;5073349;28;20380;-34
2024/02/02 08:23:42;;;;;;;26.15;3.28;;;;;;;;;;5074855;28;20101;-33
2024/02/02 08:26:08;;;;;;;23.33;3.50;;;;;;;;;;5074830;28;20024;-33
2024/02/02 08:28:33;;;;;;;20.75;3.95;;;;;;;;;;5074820;28;20491;-33
2024/02/02 08:30:58;;;;;;;24.42;3.67;;;;;;;;;;5074662;28;20024;-34
2024/02/02 08:33:24;;;;;;;18.88;3.38;;;;;;;;;;5074963;28;20443;-33
2024/02/02 08:35:49;;;;;;;23.08;3.92;;;;;;;;;;5073237;28;20020;-34
2024/02/02 08:38:16;;;;;;;23.40;3.58;;;;;;;;;;5073065;28;20023;-34
2024/02/02 08:40:45;;;;;;;25.80;3.47;;;;;;;;;;5074166;28;20031;-35
2024/02/02 08:43:11;;;;;;;25.58;3.50;;;;;;;;;;5074053;28;20036;-32
2024/02/02 08:45:42;;;;;;;24.98;3.40;;;;;;;;;;5074247;28;20104;-34
2024/02/02 08:48:14;;;;;;;21.80;3.75;;;;;;;;;;5074654;28;20031;-35
2024/02/02 08:50:39;;;;;;;32.83;3.65;;;;;;;;;;5074197;28;20515;-34
2024/02/02 08:53:06;;;;;;;23.17;3.72;;;;;;;;;;5074372;28;20032;-35
2024/02/02 08:55:34;;;;;;;20.40;3.70;;;;;;;;;;5074504;28;20389;-35
2024/02/02 08:58:00;;;;;;;22.27;3.47;;;;;;;;;;5074316;28;20410;-34
2024/02/02 09:00:39;;;;;;;29.88;3.58;;;;;;;;;;5072488;28;20024;-33
2024/02/02 09:03:07;;;;;;;27.50;4.03;;;;;;;;;;5074013;28;20052;-33
2024/02/02 09:05:59;;;;;;;23.45;3.35;;;;;;;;;;5073616;28;20025;-33
2024/02/02 09:08:27;;;;;;;23.80;3.88;;;;;;;;;;5072384;28;20033;-34
2024/02/02 09:10:59;;;;;;;30.33;4.43;;;;;;;;;;5073952;28;20448;-34
2024/02/02 09:13:28;;;;;;;24.55;3.58;;;;;;;;;;5073448;28;20021;-34
2024/02/02 09:15:54;;;;;;;27.27;3.83;;;;;;;;;;5073717;28;20464;-34
2024/02/02 09:18:39;;;;;;;20.30;3.03;;;;;;;;;;5073449;28;20016;-34
2024/02/02 09:21:05;;;;;;;19.20;3.47;;;;;;;;;;5073322;28;20121;-34
2024/02/02 09:23:32;;;;;;;19.20;4.07;;;;;;;;;;5074179;28;20358;-34
2024/02/02 09:25:58;;;;;;;25.70;3.70;;;;;;;;;;5073712;28;20458;-34
2024/02/02 09:28:23;;;;;;;24.95;3.47;;;;;;;;;;5073695;28;20021;-34
2024/02/02 09:30:48;;;;;;;27.93;3.90;;;;;;;;;;5073291;28;20412;-34
2024/02/02 09:33:25;;;;;;;24.20;3.43;;;;;;;;;;5073944;28;20294;-33
2024/02/02 09:35:53;;;;;;;24.05;3.70;;;;;;;;;;5073869;28;20599;-34
2024/02/02 09:38:19;;;;;;;26.33;3.83;;;;;;;;;;5073314;28;20020;-34
2024/02/02 09:41:03;;;;;;;21.73;3.45;;;;;;;;;;5073948;28;20024;-34
2024/02/02 09:43:34;;;;;;;22.50;3.90;;;;;;;;;;5074375;28;20505;-33
2024/02/02 09:45:59;;;;;;;21.95;3.60;;;;;;;;;;5073884;28;20024;-35
2024/02/02 09:48:33;;;;;;;23.55;3.67;;;;;;;;;;5073297;28;20024;-34
2024/02/02 09:51:05;;;;;;;25.73;3.58;;;;;;;;;;5073155;28;20029;-34
2024/02/02 09:53:33;;;;;;;26.73;4.03;;;;;;;;;;5073902;28;20019;-34
2024/02/02 09:56:05;;;;;;;30.60;3.95;;;;;;;;;;5071970;28;20187;-34
2024/02/02 09:58:35;;;;;;;28.80;4.07;;;;;;;;;;5073479;28;20100;-34
2024/02/02 10:01:13;;;;;;;33.35;4.10;;;;;;;;;;5073185;28;20024;-33
2024/02/02 10:04:02;;;;;;;27.73;4.13;;;;;;;;;;5073232;28;20060;-34
2024/02/02 10:06:46;;;;;;;26.35;4.32;;;;;;;;;;5069890;28;20033;-34
2024/02/02 10:09:26;;;;;;;24.58;4.45;;;;;;;;;;5073030;28;20020;-34
2024/02/02 10:11:52;;;;;;;33.22;4.65;;;;;;;;;;5073021;28;20069;-34
2024/02/02 10:14:26;;;;;;;27.15;4.32;;;;;;;;;;5073105;28;20028;-33
2024/02/02 10:17:09;;;;;;;32.00;4.30;;;;;;;;;;5074894;28;20023;-34
2024/02/02 10:19:34;;;;;;;;;;;;;;;;;;5077936;28;20455;-34
2024/02/02 10:22:05;;;;;;;26.90;4.50;;;;;;;;;;5076789;28;20402;-34
2024/02/02 10:24:45;;;;;;;24.75;4.03;;;;;;;;;;5077136;28;20050;-34
2024/02/02 10:27:26;;;;;;;24.50;4.00;;;;;;;;;;5076715;28;20028;-35
2024/02/02 10:29:51;;;;;;;31.95;4.88;;;;;;;;;;5075377;28;20081;-34
2024/02/02 10:32:18;;;;;;;25.33;4.37;;;;;;;;;;5076977;28;20166;-34
2024/02/02 10:34:43;;;;;;;27.25;4.90;;;;;;;;;;5077241;28;20251;-35
2024/02/02 10:37:23;;;;;;;27.87;5.17;;;;;;;;;;5076616;28;20379;-33
2024/02/02 10:40:10;;;;;;;25.25;4.43;;;;;;;;;;5076463;28;20274;-33
2024/02/02 10:42:36;;;;;;;32.58;4.97;;;;;;;;;;5072641;28;20036;-33
2024/02/02 10:45:04;;;;;;;23.00;4.55;;;;;;;;;;5076549;28;20028;-34
2024/02/02 10:47:56;;;;;;;28.10;4.60;;;;;;;;;;5075142;28;20029;-34
2024/02/02 10:50:41;;;;;;;33.92;4.88;;;;;;;;;;5074751;28;20017;-34
2024/02/02 10:53:06;;;;;;;26.10;4.80;;;;;;;;;;5062960;28;20039;-34
2024/02/02 10:55:38;;;;;;;24.90;4.53;;;;;;;;;;5073335;28;20399;-34
2024/02/02 10:58:18;;;;;;;30.75;3.97;;;;;;;;;;5074402;28;20471;-34
2024/02/02 11:00:50;;;;;;;28.98;4.55;;;;;;;;;;5074395;28;20028;-34
2024/02/02 11:03:16;;;;;;;25.67;4.97;;;;;;;;;;5073119;28;20407;-33
2024/02/02 11:06:06;;;;;;;30.70;5.05;;;;;;;;;;5075699;28;20107;-35
2024/02/02 11:08:33;;;;;;;30.23;4.28;;;;;;;;;;5073337;28;20039;-33
2024/02/02 11:11:08;;;;;;;23.10;4.10;;;;;;;;;;5076297;28;20021;-33
2024/02/02 11:13:33;;;;;;;25.65;5.10;;;;;;;;;;5076442;28;20013;-34
2024/02/02 11:15:58;;;;;;;25.07;4.10;;;;;;;;;;5076461;28;20028;-34
2024/02/02 11:18:23;;;;;;;22.83;4.10;;;;;;;;;;5075674;28;20669;-34
2024/02/02 11:20:50;;;;;;;28.83;4.40;;;;;;;;;;5076376;28;20056;-34
2024/02/02 11:23:34;;;;;;;26.63;4.30;;;;;;;;;;5075978;28;20267;-34
2024/02/02 11:26:06;;;;;;;26.13;4.25;;;;;;;;;;5075974;28;20086;-34
2024/02/02 11:28:38;;;;;;;28.38;4.57;;;;;;;;;;5074366;28;20485;-34
2024/02/02 11:31:06;;;;;;;25.10;4.45;;;;;;;;;;5075592;28;20024;-36
2024/02/02 11:33:46;;;;;;;29.92;5.00;;;;;;;;;;5075528;28;20016;-33
2024/02/02 11:36:20;;;;;;;25.08;3.95;;;;;;;;;;5074636;28;20021;-33
2024/02/02 11:39:04;;;;;;;30.23;5.55;;;;;;;;;;5075735;28;20429;-33
2024/02/02 11:41:29;;;;;;;;;;;;;;;;;;5075829;28;20387;-34
2024/02/02 11:43:55;;;;;;;30.50;5.57;;;;;;;;;;5075919;28;20370;-34
2024/02/02 11:46:23;;;;;;;25.05;4.88;;;;;;;;;;5075698;28;20370;-33
2024/02/02 11:48:50;;;;;;;25.55;4.85;;;;;;;;;;5075351;28;20024;-41
2024/02/02 11:51:16;;;;;;;20.85;4.90;;;;;;;;;;5075380;28;20367;-34
2024/02/02 11:54:00;;;;;;;22.45;4.93;;;;;;;;;;5075068;28;20028;-33
2024/02/02 11:56:51;;;;;;;34.70;5.50;;;;;;;;;;5075151;28;20017;-34
2024/02/02 11:59:23;;;;;;;27.98;4.95;;;;;;;;;;5074625;28;20375;-34
2024/02/02 12:02:00;;;;;;;34.70;5.80;;;;;;;;;;5075079;28;20101;-34
2024/02/02 12:04:44;;;;;;;22.33;5.15;;;;;;;;;;5074925;28;20048;-34
2024/02/02 12:07:36;;;;;;;28.20;5.45;;;;;;;;;;5075115;28;20021;-33
2024/02/02 12:10:02;;;;;;;23.60;4.35;;;;;;;;;;5075099;28;20455;-33
2024/02/02 12:12:35;;;;;;;23.13;5.20;;;;;;;;;;5075528;28;20024;-33
2024/02/02 12:15:01;;;;;;;;;;;;;;;;;;5075743;28;20074;-33
2024/02/02 12:17:26;;;;;;;30.38;5.70;;;;;;;;;;5075278;28;19908;-33
2024/02/02 12:19:52;;;;;;;23.65;5.13;;;;;;;;;;5074694;28;20020;-33
2024/02/02 12:22:17;;;;;;;26.17;5.45;;;;;;;;;;5074654;28;20074;-39
2024/02/02 12:24:43;;;;;;;25.20;5.53;;;;;;;;;;5075237;28;20405;-33
2024/02/02 12:27:09;;;;;;;24.48;5.43;;;;;;;;;;5074653;28;20024;-34
2024/02/02 12:29:35;;;;;;;26.52;5.78;;;;;;;;;;5074255;28;20487;-34
2024/02/02 12:32:00;;;;;;;28.17;5.40;;;;;;;;;;5074296;28;20027;-33
2024/02/02 12:34:26;;;;;;;24.90;5.50;;;;;;;;;;5074885;28;20009;-36
2024/02/02 12:36:51;;;;;;;31.17;5.65;;;;;;;;;;5074256;28;20460;-34
2024/02/02 12:39:16;;;;;;;24.38;5.68;;;;;;;;;;5072878;28;20024;-34
2024/02/02 12:41:41;;;;;;;17.88;5.57;;;;;;;;;;5074359;28;20023;-33
2024/02/02 12:44:07;;;;;;;19.73;6.22;;;;;;;;;;5074360;28;20023;-33
2024/02/02 12:46:43;;;;;;;27.85;5.65;;;;;;;;;;5074415;28;20095;-34
2024/02/02 12:49:08;;;;;;;20.25;5.45;;;;;;;;;;5073977;28;20054;-32
2024/02/02 12:51:33;;;;;;;26.55;6.22;;;;;;;;;;5073973;28;20013;-33
2024/02/02 12:53:59;;;;;;;18.35;6.82;;;;;;;;;;5073959;28;20447;-33
2024/02/02 12:56:24;;;;;;;25.25;6.07;;;;;;;;;;5073914;28;20096;-33
2024/02/02 12:58:49;;;;;;;17.42;6.00;;;;;;;;;;5073873;28;20044;-33
2024/02/02 13:01:15;;;;;;;28.98;6.85;;;;;;;;;;5073884;28;20017;-34
2024/02/02 13:03:41;;;;;;;17.05;5.32;;;;;;;;;;5073563;28;20117;-34
2024/02/02 13:06:07;;;;;;;23.90;6.45;;;;;;;;;;5073812;28;20050;-34
2024/02/02 13:08:37;;;;;;;23.15;6.13;;;;;;;;;;5073648;28;20059;-33
2024/02/02 13:11:06;;;;;;;21.33;5.85;;;;;;;;;;5073459;28;20016;-34
2024/02/02 13:13:33;;;;;;;18.15;5.32;;;;;;;;;;5073528;28;20048;-34
2024/02/02 13:16:05;;;;;;;25.42;5.75;;;;;;;;;;5074024;28;20047;-34
2024/02/02 13:18:35;;;;;;;22.93;5.30;;;;;;;;;;5073603;28;20012;-33
2024/02/02 13:21:01;;;;;;;24.55;5.63;;;;;;;;;;5073965;28;20043;-34
2024/02/02 13:23:32;;;;;;;22.42;5.70;;;;;;;;;;5072389;28;20021;-38
2024/02/02 13:26:00;;;;;;;19.38;5.00;;;;;;;;;;5073620;28;20020;-34
2024/02/02 13:28:29;;;;;;;25.08;6.18;;;;;;;;;;5073622;28;20467;-33
2024/02/02 13:31:04;;;;;;;32.28;5.65;;;;;;;;;;5073749;28;20463;-34
2024/02/02 13:33:35;;;;;;;23.30;5.40;;;;;;;;;;5073689;28;20474;-33
2024/02/02 13:36:03;;;;;;;24.65;5.50;;;;;;;;;;5073329;28;20013;-33
2024/02/02 13:38:31;;;;;;;26.45;5.32;;;;;;;;;;5073439;28;20078;-33
2024/02/02 13:40:59;;;;;;;18.20;5.00;;;;;;;;;;5073766;28;20549;-33
2024/02/02 13:43:25;;;;;;;19.48;5.50;;;;;;;;;;5072194;28;20047;-40
2024/02/02 13:46:03;;;;;;;16.95;4.97;;;;;;;;;;5073298;28;20464;-33
2024/02/02 13:48:43;;;;;;;24.33;6.25;;;;;;;;;;5073708;28;20411;-34
2024/02/02 13:51:09;;;;;;;18.55;5.10;;;;;;;;;;5072020;28;20031;-35
2024/02/02 13:53:35;;;;;;;28.40;5.78;;;;;;;;;;5077544;28;20036;-34
2024/02/02 13:56:06;;;;;;;23.15;5.40;;;;;;;;;;5077961;28;20016;-34
2024/02/02 13:58:44;;;;;;;14.18;5.07;;;;;;;;;;5076143;28;20025;-34
2024/02/02 14:01:13;;;;;;;27.20;5.32;;;;;;;;;;5077363;28;20027;-34
2024/02/02 14:03:38;;;;;;;19.92;5.22;;;;;;;;;;5077343;28;20049;-33
2024/02/02 14:06:03;;;;;;;20.25;5.32;;;;;;;;;;5076328;28;20019;-34
2024/02/02 14:08:38;;;;;;;24.55;6.20;;;;;;;;;;5076734;28;20021;-34
2024/02/02 14:11:03;;;;;;;18.35;6.20;;;;;;;;;;5077240;28;20032;-34
2024/02/02 14:13:29;;;;;;;25.58;5.90;;;;;;;;;;5077547;28;20420;-34
2024/02/02 14:15:55;;;;;;;20.17;5.10;;;;;;;;;;5076933;28;20013;-34
2024/02/02 14:18:20;;;;;;;20.88;5.68;;;;;;;;;;5076858;28;20087;-34
2024/02/02 14:20:46;;;;;;;26.65;6.70;;;;;;;;;;5077850;28;20036;-33
2024/02/02 14:23:11;;;;;;;27.98;6.38;;;;;;;;;;5076672;28;20515;-32
2024/02/02 14:25:37;;;;;;;21.27;5.93;;;;;;;;;;5076795;28;20103;-32
2024/02/02 14:28:15;;;;;;;25.85;6.55;;;;;;;;;;5076968;28;20099;-32
2024/02/02 14:30:41;;;;;;;26.92;6.53;;;;;;;;;;5076547;28;20100;-32
2024/02/02 14:33:07;;;;;;;21.92;6.72;;;;;;;;;;5075410;28;20063;-32